sensor_id;sensor_type;location;lat;lon;timestamp;pressure;altitude;pressure_sealevel;temperature;humidity
44441;BME280;30146;52.268;20.944;2023-08-08T00:00:38;99394.17;;;15.62;65.63
44441;BME280;30146;52.268;20.944;2023-08-08T00:03:09;99396.66;;;15.60;65.53
44441;BME280;30146;52.268;20.944;2023-08-08T00:05:41;99397.05;;;15.58;65.44
44441;BME280;30146;52.268;20.944;2023-08-08T00:08:12;99401.44;;;15.57;65.31
44441;BME280;30146;52.268;20.944;2023-08-08T00:10:43;99404.80;;;15.55;65.40
44441;BME280;30146;52.268;20.944;2023-08-08T00:13:14;99410.91;;;15.54;65.18
44441;BME280;30146;52.268;20.944;2023-08-08T00:15:45;99410.95;;;15.52;65.15
44441;BME280;30146;52.268;20.944;2023-08-08T00:18:16;99417.20;;;15.51;65.13
44441;BME280;30146;52.268;20.944;2023-08-08T00:20:47;99417.15;;;15.49;64.99
44441;BME280;30146;52.268;20.944;2023-08-08T00:23:18;99423.79;;;15.46;64.99
44441;BME280;30146;52.268;20.944;2023-08-08T00:25:49;99425.98;;;15.44;64.86
44441;BME280;30146;52.268;20.944;2023-08-08T00:28:20;99427.77;;;15.43;64.81
44441;BME280;30146;52.268;20.944;2023-08-08T00:30:51;99427.64;;;15.41;64.77
44441;BME280;30146;52.268;20.944;2023-08-08T00:33:23;99434.35;;;15.37;64.68
44441;BME280;30146;52.268;20.944;2023-08-08T00:35:53;99430.64;;;15.36;64.58
44441;BME280;30146;52.268;20.944;2023-08-08T00:38:25;99433.14;;;15.33;64.57
44441;BME280;30146;52.268;20.944;2023-08-08T00:40:56;99439.23;;;15.32;64.34
44441;BME280;30146;52.268;20.944;2023-08-08T00:43:27;99441.67;;;15.31;64.38
44441;BME280;30146;52.268;20.944;2023-08-08T00:45:58;99442.48;;;15.28;64.32
44441;BME280;30146;52.268;20.944;2023-08-08T00:48:30;99439.81;;;15.26;64.22
44441;BME280;30146;52.268;20.944;2023-08-08T00:51:02;99446.96;;;15.25;64.20
44441;BME280;30146;52.268;20.944;2023-08-08T00:53:33;99449.93;;;15.23;64.14
44441;BME280;30146;52.268;20.944;2023-08-08T00:56:05;99454.80;;;15.22;64.14
44441;BME280;30146;52.268;20.944;2023-08-08T00:58:36;99461.36;;;15.22;64.10
44441;BME280;30146;52.268;20.944;2023-08-08T01:01:08;99469.69;;;15.20;64.02
44441;BME280;30146;52.268;20.944;2023-08-08T01:03:39;99475.55;;;15.20;64.04
44441;BME280;30146;52.268;20.944;2023-08-08T01:06:16;99477.84;;;15.18;63.92
44441;BME280;30146;52.268;20.944;2023-08-08T01:08:57;99476.42;;;15.15;63.90
44441;BME280;30146;52.268;20.944;2023-08-08T01:11:30;99475.32;;;15.13;63.81
44441;BME280;30146;52.268;20.944;2023-08-08T01:14:05;99470.05;;;15.12;64.01
44441;BME280;30146;52.268;20.944;2023-08-08T01:16:37;99472.77;;;15.09;63.92
44441;BME280;30146;52.268;20.944;2023-08-08T01:19:10;99475.33;;;15.05;63.90
44441;BME280;30146;52.268;20.944;2023-08-08T01:21:44;99476.50;;;15.01;63.83
44441;BME280;30146;52.268;20.944;2023-08-08T01:24:19;99483.19;;;14.97;63.94
44441;BME280;30146;52.268;20.944;2023-08-08T01:26:51;99484.73;;;14.94;64.00
44441;BME280;30146;52.268;20.944;2023-08-08T01:29:23;99491.42;;;14.90;63.93
44441;BME280;30146;52.268;20.944;2023-08-08T01:31:54;99495.84;;;14.88;63.96
44441;BME280;30146;52.268;20.944;2023-08-08T01:34:26;99498.06;;;14.83;64.03
44441;BME280;30146;52.268;20.944;2023-08-08T01:36:59;99499.42;;;14.79;64.00
44441;BME280;30146;52.268;20.944;2023-08-08T01:39:35;99503.67;;;14.76;64.01
44441;BME280;30146;52.268;20.944;2023-08-08T01:42:08;99504.46;;;14.73;64.16
44441;BME280;30146;52.268;20.944;2023-08-08T01:44:42;99506.82;;;14.70;64.22
44441;BME280;30146;52.268;20.944;2023-08-08T01:47:13;99507.83;;;14.67;64.23
44441;BME280;30146;52.268;20.944;2023-08-08T01:49:44;99510.85;;;14.65;64.21
44441;BME280;30146;52.268;20.944;2023-08-08T01:52:15;99511.51;;;14.61;64.11
44441;BME280;30146;52.268;20.944;2023-08-08T01:54:46;99519.33;;;14.59;64.21
44441;BME280;30146;52.268;20.944;2023-08-08T01:57:17;99516.11;;;14.57;64.31
44441;BME280;30146;52.268;20.944;2023-08-08T01:59:48;99520.63;;;14.55;64.35
44441;BME280;30146;52.268;20.944;2023-08-08T02:02:19;99519.77;;;14.55;64.34
44441;BME280;30146;52.268;20.944;2023-08-08T02:04:51;99523.07;;;14.55;64.36
44441;BME280;30146;52.268;20.944;2023-08-08T02:07:22;99527.40;;;14.54;64.45
44441;BME280;30146;52.268;20.944;2023-08-08T02:09:53;99525.08;;;14.52;64.45
44441;BME280;30146;52.268;20.944;2023-08-08T02:12:26;99526.67;;;14.51;64.49
44441;BME280;30146;52.268;20.944;2023-08-08T02:15:00;99536.21;;;14.48;64.42
44441;BME280;30146;52.268;20.944;2023-08-08T02:17:31;99533.55;;;14.46;64.29
44441;BME280;30146;52.268;20.944;2023-08-08T02:20:03;99537.09;;;14.43;64.30
44441;BME280;30146;52.268;20.944;2023-08-08T02:22:34;99544.92;;;14.41;64.34
44441;BME280;30146;52.268;20.944;2023-08-08T02:25:06;99543.28;;;14.39;64.39
44441;BME280;30146;52.268;20.944;2023-08-08T02:27:38;99545.11;;;14.36;64.33
44441;BME280;30146;52.268;20.944;2023-08-08T02:30:12;99548.12;;;14.34;64.35
44441;BME280;30146;52.268;20.944;2023-08-08T02:32:43;99550.77;;;14.32;64.44
44441;BME280;30146;52.268;20.944;2023-08-08T02:35:15;99554.81;;;14.30;64.28
44441;BME280;30146;52.268;20.944;2023-08-08T02:37:46;99562.33;;;14.26;64.28
44441;BME280;30146;52.268;20.944;2023-08-08T02:40:17;99562.25;;;14.23;64.42
44441;BME280;30146;52.268;20.944;2023-08-08T02:42:48;99566.30;;;14.21;64.44
44441;BME280;30146;52.268;20.944;2023-08-08T02:45:19;99567.25;;;14.18;64.27
44441;BME280;30146;52.268;20.944;2023-08-08T02:47:50;99571.51;;;14.15;64.28
44441;BME280;30146;52.268;20.944;2023-08-08T02:50:21;99577.95;;;14.12;64.30
44441;BME280;30146;52.268;20.944;2023-08-08T02:52:52;99576.84;;;14.10;64.25
44441;BME280;30146;52.268;20.944;2023-08-08T02:55:26;99578.46;;;14.08;64.34
44441;BME280;30146;52.268;20.944;2023-08-08T02:57:57;99578.23;;;14.04;64.16
44441;BME280;30146;52.268;20.944;2023-08-08T03:00:28;99586.04;;;14.02;64.16
44441;BME280;30146;52.268;20.944;2023-08-08T03:03:01;99590.25;;;14.00;64.18
44441;BME280;30146;52.268;20.944;2023-08-08T03:05:34;99591.02;;;13.97;64.18
44441;BME280;30146;52.268;20.944;2023-08-08T03:08:06;99594.89;;;13.95;64.09
44441;BME280;30146;52.268;20.944;2023-08-08T03:10:37;99597.86;;;13.93;64.30
44441;BME280;30146;52.268;20.944;2023-08-08T03:13:09;99602.06;;;13.92;64.09
44441;BME280;30146;52.268;20.944;2023-08-08T03:15:40;99604.20;;;13.89;64.13
44441;BME280;30146;52.268;20.944;2023-08-08T03:18:11;99609.38;;;13.89;64.22
44441;BME280;30146;52.268;20.944;2023-08-08T03:20:42;99611.98;;;13.88;64.29
44441;BME280;30146;52.268;20.944;2023-08-08T03:23:16;99612.71;;;13.87;64.28
44441;BME280;30146;52.268;20.944;2023-08-08T03:25:47;99612.79;;;13.85;64.26
44441;BME280;30146;52.268;20.944;2023-08-08T03:28:19;99614.38;;;13.83;64.20
44441;BME280;30146;52.268;20.944;2023-08-08T03:30:50;99617.02;;;13.82;64.24
44441;BME280;30146;52.268;20.944;2023-08-08T03:33:21;99618.29;;;13.79;64.08
44441;BME280;30146;52.268;20.944;2023-08-08T03:35:52;99622.47;;;13.78;64.12
44441;BME280;30146;52.268;20.944;2023-08-08T03:38:23;99624.08;;;13.76;64.10
44441;BME280;30146;52.268;20.944;2023-08-08T03:40:54;99628.29;;;13.73;64.17
44441;BME280;30146;52.268;20.944;2023-08-08T03:43:25;99632.92;;;13.73;64.20
44441;BME280;30146;52.268;20.944;2023-08-08T03:45:57;99635.18;;;13.72;64.29
44441;BME280;30146;52.268;20.944;2023-08-08T03:48:28;99640.64;;;13.74;64.41
44441;BME280;30146;52.268;20.944;2023-08-08T03:51:00;99641.45;;;13.75;64.47
44441;BME280;30146;52.268;20.944;2023-08-08T03:53:32;99643.99;;;13.76;64.49
44441;BME280;30146;52.268;20.944;2023-08-08T03:56:03;99648.58;;;13.77;64.53
44441;BME280;30146;52.268;20.944;2023-08-08T03:58:34;99657.14;;;13.78;64.56
44441;BME280;30146;52.268;20.944;2023-08-08T04:01:05;99658.64;;;13.80;64.40
44441;BME280;30146;52.268;20.944;2023-08-08T04:03:37;99663.06;;;13.81;64.47
44441;BME280;30146;52.268;20.944;2023-08-08T04:06:08;99665.30;;;13.86;64.65
44441;BME280;30146;52.268;20.944;2023-08-08T04:08:39;99671.17;;;13.95;64.80
44441;BME280;30146;52.268;20.944;2023-08-08T04:11:10;99671.72;;;14.04;64.75
44441;BME280;30146;52.268;20.944;2023-08-08T04:13:41;99674.55;;;14.17;64.98
44441;BME280;30146;52.268;20.944;2023-08-08T04:16:12;99682.73;;;14.29;64.69
44441;BME280;30146;52.268;20.944;2023-08-08T04:18:43;99685.30;;;14.38;64.42
44441;BME280;30146;52.268;20.944;2023-08-08T04:21:14;99683.92;;;14.53;64.23
44441;BME280;30146;52.268;20.944;2023-08-08T04:23:45;99687.30;;;14.70;64.02
44441;BME280;30146;52.268;20.944;2023-08-08T04:26:16;99690.15;;;14.99;63.87
44441;BME280;30146;52.268;20.944;2023-08-08T04:28:48;99693.11;;;15.43;63.81
44441;BME280;30146;52.268;20.944;2023-08-08T04:31:19;99698.00;;;15.89;63.53
44441;BME280;30146;52.268;20.944;2023-08-08T04:33:50;99697.64;;;16.38;63.16
44441;BME280;30146;52.268;20.944;2023-08-08T04:36:21;99699.75;;;16.88;62.80
44441;BME280;30146;52.268;20.944;2023-08-08T04:38:52;99691.95;;;17.44;62.36
44441;BME280;30146;52.268;20.944;2023-08-08T04:41:23;99698.09;;;18.02;62.03
44441;BME280;30146;52.268;20.944;2023-08-08T04:43:54;99698.05;;;18.63;61.80
44441;BME280;30146;52.268;20.944;2023-08-08T04:46:25;99701.13;;;19.16;61.04
44441;BME280;30146;52.268;20.944;2023-08-08T04:48:56;99705.23;;;19.51;60.20
44441;BME280;30146;52.268;20.944;2023-08-08T04:51:27;99704.42;;;19.78;59.38
44441;BME280;30146;52.268;20.944;2023-08-08T04:53:58;99711.94;;;20.01;59.07
44441;BME280;30146;52.268;20.944;2023-08-08T04:56:29;99714.38;;;20.27;58.62
44441;BME280;30146;52.268;20.944;2023-08-08T04:59:00;99720.11;;;20.53;58.39
44441;BME280;30146;52.268;20.944;2023-08-08T05:01:31;99719.93;;;20.96;58.27
44441;BME280;30146;52.268;20.944;2023-08-08T05:04:03;99720.70;;;21.17;57.12
44441;BME280;30146;52.268;20.944;2023-08-08T05:06:37;99722.52;;;21.19;56.05
44441;BME280;30146;52.268;20.944;2023-08-08T05:09:08;99722.40;;;20.96;54.98
44441;BME280;30146;52.268;20.944;2023-08-08T05:11:42;99724.80;;;20.62;54.16
44441;BME280;30146;52.268;20.944;2023-08-08T05:14:14;99729.04;;;20.26;53.84
44441;BME280;30146;52.268;20.944;2023-08-08T05:16:46;99729.23;;;19.90;53.65
44441;BME280;30146;52.268;20.944;2023-08-08T05:19:17;99726.53;;;19.58;53.80
44441;BME280;30146;52.268;20.944;2023-08-08T05:21:49;99730.17;;;19.27;53.74
44441;BME280;30146;52.268;20.944;2023-08-08T05:24:22;99736.98;;;19.00;54.16
44441;BME280;30146;52.268;20.944;2023-08-08T05:26:53;99740.77;;;18.81;54.46
44441;BME280;30146;52.268;20.944;2023-08-08T05:29:24;99742.64;;;18.68;54.79
44441;BME280;30146;52.268;20.944;2023-08-08T05:31:56;99743.55;;;18.54;54.82
44441;BME280;30146;52.268;20.944;2023-08-08T05:34:28;99742.94;;;18.46;55.17
44441;BME280;30146;52.268;20.944;2023-08-08T05:37:00;99747.52;;;18.41;55.46
44441;BME280;30146;52.268;20.944;2023-08-08T05:39:46;99750.30;;;18.37;55.53
44441;BME280;30146;52.268;20.944;2023-08-08T05:42:17;99750.55;;;18.36;55.70
44441;BME280;30146;52.268;20.944;2023-08-08T05:44:49;99756.64;;;18.35;55.61
44441;BME280;30146;52.268;20.944;2023-08-08T05:47:21;99755.68;;;18.40;55.75
44441;BME280;30146;52.268;20.944;2023-08-08T05:49:52;99759.73;;;18.45;55.67
44441;BME280;30146;52.268;20.944;2023-08-08T05:52:24;99760.83;;;18.44;55.36
44441;BME280;30146;52.268;20.944;2023-08-08T05:54:55;99766.48;;;18.39;55.27
44441;BME280;30146;52.268;20.944;2023-08-08T05:57:29;99769.69;;;18.34;55.18
44441;BME280;30146;52.268;20.944;2023-08-08T06:00:01;99771.35;;;18.28;55.27
44441;BME280;30146;52.268;20.944;2023-08-08T06:02:41;99774.09;;;18.19;55.00
44441;BME280;30146;52.268;20.944;2023-08-08T06:05:13;99771.86;;;18.07;55.21
44441;BME280;30146;52.268;20.944;2023-08-08T06:07:46;99773.77;;;18.00;55.37
44441;BME280;30146;52.268;20.944;2023-08-08T06:10:17;99775.12;;;18.01;55.72
44441;BME280;30146;52.268;20.944;2023-08-08T06:12:49;99777.59;;;18.18;56.03
44441;BME280;30146;52.268;20.944;2023-08-08T06:15:20;99780.71;;;18.28;55.86
44441;BME280;30146;52.268;20.944;2023-08-08T06:17:54;99783.73;;;18.40;55.96
44441;BME280;30146;52.268;20.944;2023-08-08T06:20:27;99790.15;;;18.60;55.81
44441;BME280;30146;52.268;20.944;2023-08-08T06:22:59;99786.33;;;18.74;55.71
44441;BME280;30146;52.268;20.944;2023-08-08T06:25:30;99789.56;;;18.88;55.58
44441;BME280;30146;52.268;20.944;2023-08-08T06:28:01;99793.30;;;19.00;55.20
44441;BME280;30146;52.268;20.944;2023-08-08T06:30:35;99794.60;;;19.08;55.04
44441;BME280;30146;52.268;20.944;2023-08-08T06:33:07;99791.67;;;19.14;55.00
44441;BME280;30146;52.268;20.944;2023-08-08T06:35:41;99795.77;;;19.16;54.44
44441;BME280;30146;52.268;20.944;2023-08-08T06:38:13;99797.20;;;19.11;54.20
44441;BME280;30146;52.268;20.944;2023-08-08T06:40:44;99797.86;;;19.05;54.18
44441;BME280;30146;52.268;20.944;2023-08-08T06:43:15;99802.67;;;18.99;54.09
44441;BME280;30146;52.268;20.944;2023-08-08T06:45:47;99807.46;;;18.94;54.10
44441;BME280;30146;52.268;20.944;2023-08-08T06:48:22;99804.90;;;18.96;54.16
44441;BME280;30146;52.268;20.944;2023-08-08T06:50:53;99806.39;;;18.91;53.79
44441;BME280;30146;52.268;20.944;2023-08-08T06:53:24;99807.14;;;18.83;53.69
44441;BME280;30146;52.268;20.944;2023-08-08T06:55:56;99809.55;;;18.84;53.87
44441;BME280;30146;52.268;20.944;2023-08-08T06:58:27;99813.29;;;18.82;53.79
44441;BME280;30146;52.268;20.944;2023-08-08T07:01:02;99813.65;;;18.85;53.73
44441;BME280;30146;52.268;20.944;2023-08-08T07:03:34;99815.20;;;18.98;53.96
44441;BME280;30146;52.268;20.944;2023-08-08T07:06:05;99811.84;;;19.16;53.78
44441;BME280;30146;52.268;20.944;2023-08-08T07:08:37;99809.48;;;19.34;53.80
44441;BME280;30146;52.268;20.944;2023-08-08T07:11:10;99810.95;;;19.49;53.69
44441;BME280;30146;52.268;20.944;2023-08-08T07:13:44;99809.14;;;19.69;53.51
44441;BME280;30146;52.268;20.944;2023-08-08T07:16:15;99813.44;;;19.82;53.09
44441;BME280;30146;52.268;20.944;2023-08-08T07:18:47;99810.58;;;19.96;53.03
44441;BME280;30146;52.268;20.944;2023-08-08T07:21:22;99807.97;;;20.09;52.84
44441;BME280;30146;52.268;20.944;2023-08-08T07:23:57;99802.45;;;20.20;52.53
44441;BME280;30146;52.268;20.944;2023-08-08T07:26:29;99807.80;;;20.32;52.55
44441;BME280;30146;52.268;20.944;2023-08-08T07:29:00;99810.89;;;20.48;52.44
44441;BME280;30146;52.268;20.944;2023-08-08T07:31:31;99807.83;;;20.68;52.54
44441;BME280;30146;52.268;20.944;2023-08-08T07:34:05;99817.64;;;20.81;51.98
44441;BME280;30146;52.268;20.944;2023-08-08T07:36:39;99814.16;;;20.78;51.26
44441;BME280;30146;52.268;20.944;2023-08-08T07:39:10;99824.32;;;20.71;50.96
44441;BME280;30146;52.268;20.944;2023-08-08T07:41:42;99818.84;;;20.57;50.45
44441;BME280;30146;52.268;20.944;2023-08-08T07:44:13;99816.27;;;20.45;50.49
44441;BME280;30146;52.268;20.944;2023-08-08T07:46:48;99820.20;;;20.37;50.66
44441;BME280;30146;52.268;20.944;2023-08-08T07:49:20;99822.30;;;20.37;50.69
44441;BME280;30146;52.268;20.944;2023-08-08T07:51:52;99821.21;;;20.40;50.76
44441;BME280;30146;52.268;20.944;2023-08-08T07:54:23;99827.91;;;20.45;50.77
44441;BME280;30146;52.268;20.944;2023-08-08T07:56:55;99824.64;;;20.47;50.78
44441;BME280;30146;52.268;20.944;2023-08-08T07:59:26;99824.52;;;20.47;50.47
44441;BME280;30146;52.268;20.944;2023-08-08T08:01:58;99824.28;;;20.45;50.65
44441;BME280;30146;52.268;20.944;2023-08-08T08:04:29;99822.27;;;20.46;50.40
44441;BME280;30146;52.268;20.944;2023-08-08T08:07:04;99825.23;;;20.52;50.51
44441;BME280;30146;52.268;20.944;2023-08-08T08:09:35;99822.91;;;20.62;50.45
44441;BME280;30146;52.268;20.944;2023-08-08T08:12:08;99824.48;;;20.83;50.49
44441;BME280;30146;52.268;20.944;2023-08-08T08:14:40;99829.13;;;21.01;49.95
44441;BME280;30146;52.268;20.944;2023-08-08T08:17:12;99827.92;;;21.18;49.96
44441;BME280;30146;52.268;20.944;2023-08-08T08:19:44;99826.63;;;21.41;50.13
44441;BME280;30146;52.268;20.944;2023-08-08T08:22:16;99819.66;;;21.58;49.77
44441;BME280;30146;52.268;20.944;2023-08-08T08:24:47;99818.06;;;21.67;49.31
44441;BME280;30146;52.268;20.944;2023-08-08T08:27:19;99817.66;;;21.84;49.16
44441;BME280;30146;52.268;20.944;2023-08-08T08:29:50;99819.80;;;22.08;48.99
44441;BME280;30146;52.268;20.944;2023-08-08T08:32:24;99816.31;;;22.29;48.85
44441;BME280;30146;52.268;20.944;2023-08-08T08:34:56;99815.29;;;22.39;48.48
44441;BME280;30146;52.268;20.944;2023-08-08T08:37:27;99820.70;;;22.55;48.36
44441;BME280;30146;52.268;20.944;2023-08-08T08:39:59;99824.23;;;22.72;48.01
44441;BME280;30146;52.268;20.944;2023-08-08T08:42:31;99826.67;;;22.82;47.84
44441;BME280;30146;52.268;20.944;2023-08-08T08:45:09;99819.40;;;22.89;47.61
44441;BME280;30146;52.268;20.944;2023-08-08T08:47:42;99824.02;;;22.96;47.05
44441;BME280;30146;52.268;20.944;2023-08-08T08:50:19;99825.36;;;22.94;46.79
44441;BME280;30146;52.268;20.944;2023-08-08T08:52:51;99822.24;;;22.98;46.70
44441;BME280;30146;52.268;20.944;2023-08-08T08:55:25;99828.61;;;23.05;46.96
44441;BME280;30146;52.268;20.944;2023-08-08T08:57:57;99828.11;;;23.15;46.79
44441;BME280;30146;52.268;20.944;2023-08-08T09:00:32;99828.19;;;23.23;46.34
44441;BME280;30146;52.268;20.944;2023-08-08T09:03:06;99831.70;;;23.26;45.91
44441;BME280;30146;52.268;20.944;2023-08-08T09:05:38;99823.61;;;23.30;45.91
44441;BME280;30146;52.268;20.944;2023-08-08T09:08:11;99823.89;;;23.30;45.88
44441;BME280;30146;52.268;20.944;2023-08-08T09:10:43;99828.34;;;23.29;45.54
44441;BME280;30146;52.268;20.944;2023-08-08T09:13:15;99828.63;;;23.20;45.02
44441;BME280;30146;52.268;20.944;2023-08-08T09:15:48;99837.52;;;23.05;44.64
44441;BME280;30146;52.268;20.944;2023-08-08T09:18:21;99837.13;;;22.90;44.66
44441;BME280;30146;52.268;20.944;2023-08-08T09:20:53;99836.69;;;22.81;45.18
44441;BME280;30146;52.268;20.944;2023-08-08T09:23:25;99837.73;;;22.78;45.01
44441;BME280;30146;52.268;20.944;2023-08-08T09:25:56;99833.69;;;22.74;44.34
44441;BME280;30146;52.268;20.944;2023-08-08T09:28:28;99834.69;;;22.72;44.63
44441;BME280;30146;52.268;20.944;2023-08-08T09:31:00;99837.98;;;22.75;44.98
44441;BME280;30146;52.268;20.944;2023-08-08T09:33:35;99838.65;;;22.80;45.41
44441;BME280;30146;52.268;20.944;2023-08-08T09:36:07;99847.31;;;22.84;45.05
44441;BME280;30146;52.268;20.944;2023-08-08T09:38:39;99847.56;;;22.80;44.66
44441;BME280;30146;52.268;20.944;2023-08-08T09:41:11;99847.10;;;22.69;43.93
44441;BME280;30146;52.268;20.944;2023-08-08T09:43:46;99854.87;;;22.49;43.51
44441;BME280;30146;52.268;20.944;2023-08-08T09:46:19;99855.20;;;22.31;43.64
44441;BME280;30146;52.268;20.944;2023-08-08T09:48:51;99858.07;;;22.16;43.78
44441;BME280;30146;52.268;20.944;2023-08-08T09:51:23;99853.23;;;22.02;43.75
44441;BME280;30146;52.268;20.944;2023-08-08T09:53:56;99857.70;;;21.89;44.01
44441;BME280;30146;52.268;20.944;2023-08-08T09:56:29;99860.10;;;21.76;44.00
44441;BME280;30146;52.268;20.944;2023-08-08T09:59:02;99863.88;;;21.63;44.24
44441;BME280;30146;52.268;20.944;2023-08-08T10:01:35;99865.77;;;21.58;44.25
44441;BME280;30146;52.268;20.944;2023-08-08T10:04:13;99859.44;;;21.51;44.22
44441;BME280;30146;52.268;20.944;2023-08-08T10:06:46;99859.07;;;21.45;44.13
44441;BME280;30146;52.268;20.944;2023-08-08T10:09:19;99852.73;;;21.55;44.40
44441;BME280;30146;52.268;20.944;2023-08-08T10:11:56;99845.51;;;21.79;45.02
44441;BME280;30146;52.268;20.944;2023-08-08T10:14:34;99841.83;;;22.03;44.52
44441;BME280;30146;52.268;20.944;2023-08-08T10:17:06;99840.48;;;22.14;43.85
44441;BME280;30146;52.268;20.944;2023-08-08T10:19:39;99839.41;;;22.27;43.85
44441;BME280;30146;52.268;20.944;2023-08-08T10:22:11;99842.00;;;22.43;43.58
44441;BME280;30146;52.268;20.944;2023-08-08T10:24:42;99840.95;;;22.52;43.56
44441;BME280;30146;52.268;20.944;2023-08-08T10:27:31;99838.08;;;22.55;43.75
44441;BME280;30146;52.268;20.944;2023-08-08T10:30:08;99845.63;;;22.52;43.14
44441;BME280;30146;52.268;20.944;2023-08-08T10:32:42;99844.16;;;22.42;42.68
44441;BME280;30146;52.268;20.944;2023-08-08T10:35:14;99844.16;;;22.30;42.60
44441;BME280;30146;52.268;20.944;2023-08-08T10:37:55;99845.11;;;22.28;42.61
44441;BME280;30146;52.268;20.944;2023-08-08T10:40:33;99841.45;;;22.39;42.77
44441;BME280;30146;52.268;20.944;2023-08-08T10:43:11;99848.92;;;22.44;42.78
44441;BME280;30146;52.268;20.944;2023-08-08T10:45:45;99838.85;;;22.49;42.88
44441;BME280;30146;52.268;20.944;2023-08-08T10:48:29;99844.23;;;22.62;42.85
44441;BME280;30146;52.268;20.944;2023-08-08T10:51:01;99852.56;;;22.73;42.02
44441;BME280;30146;52.268;20.944;2023-08-08T10:53:32;99857.29;;;22.80;41.66
44441;BME280;30146;52.268;20.944;2023-08-08T10:56:06;99851.71;;;22.88;41.48
44441;BME280;30146;52.268;20.944;2023-08-08T10:58:38;99852.36;;;22.96;41.59
44441;BME280;30146;52.268;20.944;2023-08-08T11:01:13;99848.09;;;23.06;41.67
44441;BME280;30146;52.268;20.944;2023-08-08T11:03:47;99852.22;;;23.01;40.59
44441;BME280;30146;52.268;20.944;2023-08-08T11:06:20;99845.96;;;22.88;40.42
44441;BME280;30146;52.268;20.944;2023-08-08T11:08:52;99851.20;;;22.83;40.92
44441;BME280;30146;52.268;20.944;2023-08-08T11:11:25;99848.42;;;22.85;40.91
44441;BME280;30146;52.268;20.944;2023-08-08T11:13:56;99857.70;;;22.84;40.82
44441;BME280;30146;52.268;20.944;2023-08-08T11:16:30;99856.38;;;22.81;40.53
44441;BME280;30146;52.268;20.944;2023-08-08T11:19:02;99853.44;;;22.78;40.73
44441;BME280;30146;52.268;20.944;2023-08-08T11:21:36;99858.91;;;22.85;41.05
44441;BME280;30146;52.268;20.944;2023-08-08T11:24:09;99868.07;;;22.94;40.78
44441;BME280;30146;52.268;20.944;2023-08-08T11:26:44;99864.58;;;22.91;40.07
44441;BME280;30146;52.268;20.944;2023-08-08T11:29:18;99864.15;;;22.87;40.15
44441;BME280;30146;52.268;20.944;2023-08-08T11:31:49;99863.70;;;22.78;39.90
44441;BME280;30146;52.268;20.944;2023-08-08T11:34:22;99874.20;;;22.65;39.52
44441;BME280;30146;52.268;20.944;2023-08-08T11:36:53;99871.34;;;22.50;39.74
44441;BME280;30146;52.268;20.944;2023-08-08T11:39:26;99871.92;;;22.39;40.01
44441;BME280;30146;52.268;20.944;2023-08-08T11:41:58;99873.59;;;22.32;40.09
44441;BME280;30146;52.268;20.944;2023-08-08T11:44:30;99880.31;;;22.28;40.04
44441;BME280;30146;52.268;20.944;2023-08-08T11:47:03;99872.77;;;22.25;40.07
44441;BME280;30146;52.268;20.944;2023-08-08T11:49:42;99874.63;;;22.27;40.26
44441;BME280;30146;52.268;20.944;2023-08-08T11:52:14;99873.27;;;22.28;40.34
44441;BME280;30146;52.268;20.944;2023-08-08T11:54:45;99874.92;;;22.36;40.17
44441;BME280;30146;52.268;20.944;2023-08-08T11:57:23;99875.69;;;22.45;40.26
44441;BME280;30146;52.268;20.944;2023-08-08T11:59:56;99876.20;;;22.51;39.97
44441;BME280;30146;52.268;20.944;2023-08-08T12:02:28;99874.11;;;22.45;39.56
44441;BME280;30146;52.268;20.944;2023-08-08T12:05:07;99872.67;;;22.38;39.64
44441;BME280;30146;52.268;20.944;2023-08-08T12:07:39;99878.16;;;22.31;39.37
44441;BME280;30146;52.268;20.944;2023-08-08T12:10:19;99882.23;;;22.28;39.25
44441;BME280;30146;52.268;20.944;2023-08-08T12:12:56;99882.05;;;22.28;39.24
44441;BME280;30146;52.268;20.944;2023-08-08T12:15:35;99869.80;;;22.32;39.32
44441;BME280;30146;52.268;20.944;2023-08-08T12:18:09;99877.85;;;22.34;39.04
44441;BME280;30146;52.268;20.944;2023-08-08T12:20:40;99886.98;;;22.27;38.41
44441;BME280;30146;52.268;20.944;2023-08-08T12:23:12;99890.40;;;22.11;38.22
44441;BME280;30146;52.268;20.944;2023-08-08T12:25:44;99887.39;;;21.99;38.60
44441;BME280;30146;52.268;20.944;2023-08-08T12:28:16;99895.05;;;21.88;38.56
44441;BME280;30146;52.268;20.944;2023-08-08T12:30:51;99897.16;;;21.76;38.86
44441;BME280;30146;52.268;20.944;2023-08-08T12:33:23;99899.77;;;21.65;39.03
44441;BME280;30146;52.268;20.944;2023-08-08T12:35:57;99900.00;;;21.56;39.06
44441;BME280;30146;52.268;20.944;2023-08-08T12:38:29;99893.82;;;21.51;39.20
44441;BME280;30146;52.268;20.944;2023-08-08T12:41:02;99891.20;;;21.55;39.26
44441;BME280;30146;52.268;20.944;2023-08-08T12:43:33;99891.31;;;21.61;39.53
44441;BME280;30146;52.268;20.944;2023-08-08T12:46:05;99889.91;;;21.64;39.36
44441;BME280;30146;52.268;20.944;2023-08-08T12:48:38;99889.16;;;21.65;39.35
44441;BME280;30146;52.268;20.944;2023-08-08T12:51:10;99891.86;;;21.67;39.36
44441;BME280;30146;52.268;20.944;2023-08-08T12:53:41;99895.23;;;21.68;39.40
44441;BME280;30146;52.268;20.944;2023-08-08T12:56:12;99890.31;;;21.69;39.53
44441;BME280;30146;52.268;20.944;2023-08-08T12:58:48;99900.58;;;21.72;39.34
44441;BME280;30146;52.268;20.944;2023-08-08T13:01:20;99901.27;;;21.75;39.13
44441;BME280;30146;52.268;20.944;2023-08-08T13:03:52;99899.25;;;21.73;38.77
44441;BME280;30146;52.268;20.944;2023-08-08T13:06:45;99897.65;;;21.71;38.66
44441;BME280;30146;52.268;20.944;2023-08-08T13:09:16;99899.00;;;21.69;38.94
44441;BME280;30146;52.268;20.944;2023-08-08T13:11:51;99895.05;;;21.68;39.03
44441;BME280;30146;52.268;20.944;2023-08-08T13:14:23;99893.85;;;21.70;39.12
44441;BME280;30146;52.268;20.944;2023-08-08T13:16:54;99890.38;;;21.71;38.88